sensor_id;sensor_type;location;lat;lon;timestamp;P1;durP1;ratioP1;P2;durP2;ratioP2
40433;SDS011;26146;51.114;5.654;2023-04-09T00:01:07;40.90;;;23.27;;
40433;SDS011;26146;51.114;5.654;2023-04-09T00:05:09;41.53;;;23.80;;
40433;SDS011;26146;51.114;5.654;2023-04-09T00:09:12;46.87;;;24.80;;
40433;SDS011;26146;51.114;5.654;2023-04-09T00:13:13;46.17;;;24.43;;
40433;SDS011;26146;51.114;5.654;2023-04-09T00:17:14;41.73;;;23.03;;
40433;SDS011;26146;51.114;5.654;2023-04-09T00:21:17;40.00;;;22.60;;
40433;SDS011;26146;51.114;5.654;2023-04-09T00:25:19;41.10;;;22.70;;
40433;SDS011;26146;51.114;5.654;2023-04-09T00:29:20;40.87;;;22.57;;
40433;SDS011;26146;51.114;5.654;2023-04-09T00:33:23;40.87;;;22.53;;
40433;SDS011;26146;51.114;5.654;2023-04-09T00:37:27;41.50;;;22.73;;
40433;SDS011;26146;51.114;5.654;2023-04-09T00:41:28;42.90;;;23.27;;
40433;SDS011;26146;51.114;5.654;2023-04-09T00:45:29;41.60;;;22.70;;
40433;SDS011;26146;51.114;5.654;2023-04-09T00:49:31;42.13;;;23.13;;
40433;SDS011;26146;51.114;5.654;2023-04-09T00:53:32;43.77;;;23.73;;
40433;SDS011;26146;51.114;5.654;2023-04-09T00:57:33;42.00;;;23.53;;
40433;SDS011;26146;51.114;5.654;2023-04-09T01:01:35;43.90;;;23.37;;
40433;SDS011;26146;51.114;5.654;2023-04-09T01:05:37;45.27;;;23.33;;
40433;SDS011;26146;51.114;5.654;2023-04-09T01:14:19;42.30;;;22.73;;
40433;SDS011;26146;51.114;5.654;2023-04-09T01:22:41;43.23;;;23.33;;
40433;SDS011;26146;51.114;5.654;2023-04-09T01:27:11;43.27;;;23.27;;
40433;SDS011;26146;51.114;5.654;2023-04-09T01:31:14;50.80;;;25.00;;
40433;SDS011;26146;51.114;5.654;2023-04-09T01:35:17;44.83;;;23.77;;
40433;SDS011;26146;51.114;5.654;2023-04-09T01:39:20;47.43;;;24.93;;
40433;SDS011;26146;51.114;5.654;2023-04-09T01:43:21;45.63;;;23.60;;
40433;SDS011;26146;51.114;5.654;2023-04-09T01:47:24;45.73;;;24.93;;
40433;SDS011;26146;51.114;5.654;2023-04-09T01:51:26;44.67;;;23.97;;
40433;SDS011;26146;51.114;5.654;2023-04-09T01:55:28;45.53;;;24.30;;
40433;SDS011;26146;51.114;5.654;2023-04-09T01:59:30;44.73;;;24.00;;
40433;SDS011;26146;51.114;5.654;2023-04-09T02:03:34;48.07;;;24.37;;
40433;SDS011;26146;51.114;5.654;2023-04-09T02:07:41;44.73;;;23.67;;
40433;SDS011;26146;51.114;5.654;2023-04-09T02:11:46;48.67;;;24.40;;
40433;SDS011;26146;51.114;5.654;2023-04-09T02:15:49;45.83;;;25.00;;
40433;SDS011;26146;51.114;5.654;2023-04-09T02:19:53;46.60;;;24.23;;
40433;SDS011;26146;51.114;5.654;2023-04-09T02:23:54;43.27;;;23.40;;
40433;SDS011;26146;51.114;5.654;2023-04-09T02:27:55;43.63;;;22.57;;
40433;SDS011;26146;51.114;5.654;2023-04-09T02:31:56;40.27;;;21.93;;
40433;SDS011;26146;51.114;5.654;2023-04-09T02:35:57;36.83;;;20.80;;
40433;SDS011;26146;51.114;5.654;2023-04-09T02:39:58;40.23;;;21.30;;
40433;SDS011;26146;51.114;5.654;2023-04-09T02:43:59;38.00;;;20.57;;
40433;SDS011;26146;51.114;5.654;2023-04-09T02:48:00;42.17;;;21.20;;
40433;SDS011;26146;51.114;5.654;2023-04-09T02:52:04;41.03;;;21.37;;
40433;SDS011;26146;51.114;5.654;2023-04-09T02:56:05;46.07;;;22.27;;
40433;SDS011;26146;51.114;5.654;2023-04-09T03:00:06;45.27;;;22.40;;
40433;SDS011;26146;51.114;5.654;2023-04-09T03:04:08;45.40;;;23.07;;
40433;SDS011;26146;51.114;5.654;2023-04-09T03:08:09;43.87;;;23.03;;
40433;SDS011;26146;51.114;5.654;2023-04-09T03:12:10;45.83;;;23.33;;
40433;SDS011;26146;51.114;5.654;2023-04-09T03:16:11;43.63;;;22.83;;
40433;SDS011;26146;51.114;5.654;2023-04-09T03:20:12;45.77;;;22.90;;
40433;SDS011;26146;51.114;5.654;2023-04-09T03:24:13;43.53;;;22.83;;
40433;SDS011;26146;51.114;5.654;2023-04-09T03:28:14;43.33;;;21.70;;
40433;SDS011;26146;51.114;5.654;2023-04-09T03:32:17;44.73;;;22.70;;
40433;SDS011;26146;51.114;5.654;2023-04-09T03:36:18;44.90;;;22.07;;
40433;SDS011;26146;51.114;5.654;2023-04-09T03:40:19;42.63;;;21.97;;
40433;SDS011;26146;51.114;5.654;2023-04-09T03:44:22;39.87;;;21.17;;
40433;SDS011;26146;51.114;5.654;2023-04-09T03:48:24;42.47;;;21.53;;
40433;SDS011;26146;51.114;5.654;2023-04-09T03:52:25;45.87;;;22.53;;
40433;SDS011;26146;51.114;5.654;2023-04-09T03:56:26;45.77;;;22.70;;
40433;SDS011;26146;51.114;5.654;2023-04-09T04:00:27;47.40;;;23.40;;
40433;SDS011;26146;51.114;5.654;2023-04-09T04:04:28;43.80;;;22.67;;
40433;SDS011;26146;51.114;5.654;2023-04-09T04:08:28;44.23;;;22.50;;
40433;SDS011;26146;51.114;5.654;2023-04-09T04:12:30;43.43;;;23.27;;
40433;SDS011;26146;51.114;5.654;2023-04-09T04:16:32;44.90;;;22.80;;
40433;SDS011;26146;51.114;5.654;2023-04-09T04:20:33;47.00;;;23.77;;
40433;SDS011;26146;51.114;5.654;2023-04-09T04:24:34;42.63;;;22.17;;
40433;SDS011;26146;51.114;5.654;2023-04-09T04:28:35;45.27;;;22.20;;
40433;SDS011;26146;51.114;5.654;2023-04-09T04:32:37;42.53;;;22.00;;
40433;SDS011;26146;51.114;5.654;2023-04-09T04:36:38;44.37;;;22.73;;
40433;SDS011;26146;51.114;5.654;2023-04-09T04:40:39;42.43;;;22.23;;
40433;SDS011;26146;51.114;5.654;2023-04-09T04:44:40;44.97;;;22.47;;
40433;SDS011;26146;51.114;5.654;2023-04-09T04:48:41;44.67;;;22.67;;
40433;SDS011;26146;51.114;5.654;2023-04-09T04:52:41;43.07;;;22.23;;
40433;SDS011;26146;51.114;5.654;2023-04-09T04:56:42;43.77;;;22.20;;
40433;SDS011;26146;51.114;5.654;2023-04-09T05:00:44;43.63;;;22.07;;
40433;SDS011;26146;51.114;5.654;2023-04-09T05:04:45;43.63;;;21.73;;
40433;SDS011;26146;51.114;5.654;2023-04-09T05:08:48;41.47;;;21.57;;
40433;SDS011;26146;51.114;5.654;2023-04-09T05:12:50;46.07;;;21.67;;
40433;SDS011;26146;51.114;5.654;2023-04-09T05:16:53;44.77;;;21.73;;
40433;SDS011;26146;51.114;5.654;2023-04-09T05:20:54;42.23;;;21.93;;
40433;SDS011;26146;51.114;5.654;2023-04-09T05:24:55;41.77;;;21.07;;
40433;SDS011;26146;51.114;5.654;2023-04-09T05:28:56;40.97;;;21.20;;
40433;SDS011;26146;51.114;5.654;2023-04-09T05:32:57;40.00;;;20.67;;
40433;SDS011;26146;51.114;5.654;2023-04-09T05:36:58;39.80;;;19.90;;
40433;SDS011;26146;51.114;5.654;2023-04-09T05:40:59;41.73;;;20.40;;
40433;SDS011;26146;51.114;5.654;2023-04-09T05:45:00;39.77;;;20.17;;
40433;SDS011;26146;51.114;5.654;2023-04-09T05:49:01;41.00;;;20.87;;
40433;SDS011;26146;51.114;5.654;2023-04-09T05:53:02;40.73;;;20.93;;
40433;SDS011;26146;51.114;5.654;2023-04-09T05:57:06;41.90;;;19.93;;
40433;SDS011;26146;51.114;5.654;2023-04-09T06:01:07;40.93;;;20.70;;
40433;SDS011;26146;51.114;5.654;2023-04-09T06:05:08;41.73;;;20.73;;
40433;SDS011;26146;51.114;5.654;2023-04-09T06:09:09;41.10;;;21.57;;
40433;SDS011;26146;51.114;5.654;2023-04-09T06:13:10;40.57;;;20.30;;
40433;SDS011;26146;51.114;5.654;2023-04-09T06:17:11;41.17;;;21.37;;
40433;SDS011;26146;51.114;5.654;2023-04-09T06:21:12;38.27;;;20.27;;
40433;SDS011;26146;51.114;5.654;2023-04-09T06:25:13;37.93;;;20.50;;
40433;SDS011;26146;51.114;5.654;2023-04-09T06:29:14;43.00;;;22.00;;
40433;SDS011;26146;51.114;5.654;2023-04-09T06:33:15;44.23;;;23.77;;
40433;SDS011;26146;51.114;5.654;2023-04-09T06:37:16;45.50;;;24.33;;
40433;SDS011;26146;51.114;5.654;2023-04-09T06:41:20;45.00;;;23.37;;
40433;SDS011;26146;51.114;5.654;2023-04-09T06:45:24;46.63;;;23.75;;
40433;SDS011;26146;51.114;5.654;2023-04-09T06:49:25;43.83;;;23.73;;
40433;SDS011;26146;51.114;5.654;2023-04-09T06:53:26;46.93;;;24.17;;
40433;SDS011;26146;51.114;5.654;2023-04-09T06:57:27;45.07;;;24.03;;
40433;SDS011;26146;51.114;5.654;2023-04-09T07:01:28;47.43;;;24.17;;
40433;SDS011;26146;51.114;5.654;2023-04-09T07:05:32;48.60;;;25.47;;
40433;SDS011;26146;51.114;5.654;2023-04-09T07:09:33;45.23;;;25.30;;
40433;SDS011;26146;51.114;5.654;2023-04-09T07:13:34;46.00;;;25.40;;
40433;SDS011;26146;51.114;5.654;2023-04-09T07:17:35;43.63;;;25.07;;
40433;SDS011;26146;51.114;5.654;2023-04-09T07:21:36;42.47;;;24.40;;
40433;SDS011;26146;51.114;5.654;2023-04-09T07:25:37;44.57;;;25.43;;
40433;SDS011;26146;51.114;5.654;2023-04-09T07:29:38;46.40;;;25.37;;
40433;SDS011;26146;51.114;5.654;2023-04-09T07:33:43;45.38;;;24.45;;
40433;SDS011;26146;51.114;5.654;2023-04-09T07:37:44;43.77;;;24.67;;
40433;SDS011;26146;51.114;5.654;2023-04-09T07:41:47;46.67;;;25.10;;
40433;SDS011;26146;51.114;5.654;2023-04-09T07:45:49;44.73;;;25.03;;
40433;SDS011;26146;51.114;5.654;2023-04-09T07:49:50;42.27;;;24.60;;
40433;SDS011;26146;51.114;5.654;2023-04-09T07:53:51;45.03;;;26.13;;
40433;SDS011;26146;51.114;5.654;2023-04-09T07:57:52;43.87;;;25.33;;
40433;SDS011;26146;51.114;5.654;2023-04-09T08:01:54;42.40;;;25.10;;
40433;SDS011;26146;51.114;5.654;2023-04-09T08:05:55;58.60;;;34.83;;
40433;SDS011;26146;51.114;5.654;2023-04-09T08:09:56;57.10;;;30.93;;
40433;SDS011;26146;51.114;5.654;2023-04-09T08:13:57;46.85;;;27.55;;
40433;SDS011;26146;51.114;5.654;2023-04-09T08:18:05;40.50;;;24.33;;
40433;SDS011;26146;51.114;5.654;2023-04-09T08:22:06;40.20;;;23.70;;
40433;SDS011;26146;51.114;5.654;2023-04-09T08:26:09;39.65;;;23.50;;
40433;SDS011;26146;51.114;5.654;2023-04-09T08:30:10;40.20;;;24.00;;
40433;SDS011;26146;51.114;5.654;2023-04-09T08:34:11;39.38;;;23.60;;
40433;SDS011;26146;51.114;5.654;2023-04-09T08:38:17;40.80;;;24.25;;
40433;SDS011;26146;51.114;5.654;2023-04-09T08:42:18;41.13;;;24.33;;
40433;SDS011;26146;51.114;5.654;2023-04-09T08:46:21;41.05;;;23.75;;
40433;SDS011;26146;51.114;5.654;2023-04-09T08:50:22;42.25;;;24.58;;
40433;SDS011;26146;51.114;5.654;2023-04-09T08:54:23;39.10;;;22.88;;
40433;SDS011;26146;51.114;5.654;2023-04-09T08:58:26;40.55;;;23.23;;
40433;SDS011;26146;51.114;5.654;2023-04-09T09:02:27;40.05;;;23.60;;
40433;SDS011;26146;51.114;5.654;2023-04-09T09:06:29;39.30;;;23.13;;
40433;SDS011;26146;51.114;5.654;2023-04-09T09:14:52;37.40;;;21.90;;
40433;SDS011;26146;51.114;5.654;2023-04-09T09:18:53;40.70;;;23.15;;
40433;SDS011;26146;51.114;5.654;2023-04-09T09:22:57;36.92;;;22.85;;
40433;SDS011;26146;51.114;5.654;2023-04-09T09:26:59;37.75;;;22.77;;
40433;SDS011;26146;51.114;5.654;2023-04-09T09:31:08;34.75;;;21.92;;
40433;SDS011;26146;51.114;5.654;2023-04-09T09:35:12;35.20;;;22.20;;
40433;SDS011;26146;51.114;5.654;2023-04-09T09:39:14;35.15;;;21.92;;
40433;SDS011;26146;51.114;5.654;2023-04-09T09:43:19;35.45;;;21.60;;
40433;SDS011;26146;51.114;5.654;2023-04-09T09:47:21;39.00;;;22.90;;
40433;SDS011;26146;51.114;5.654;2023-04-09T09:51:24;32.47;;;19.95;;
40433;SDS011;26146;51.114;5.654;2023-04-09T09:55:27;34.10;;;20.63;;
40433;SDS011;26146;51.114;5.654;2023-04-09T09:59:32;33.65;;;19.48;;
40433;SDS011;26146;51.114;5.654;2023-04-09T10:03:37;32.70;;;19.30;;
40433;SDS011;26146;51.114;5.654;2023-04-09T10:07:39;30.50;;;18.35;;
40433;SDS011;26146;51.114;5.654;2023-04-09T10:11:41;28.65;;;18.02;;
40433;SDS011;26146;51.114;5.654;2023-04-09T10:15:44;31.83;;;18.83;;
40433;SDS011;26146;51.114;5.654;2023-04-09T10:20:09;30.48;;;18.35;;
40433;SDS011;26146;51.114;5.654;2023-04-09T10:24:15;32.80;;;19.85;;
40433;SDS011;26146;51.114;5.654;2023-04-09T10:28:17;31.40;;;19.25;;
40433;SDS011;26146;51.114;5.654;2023-04-09T10:32:19;33.15;;;19.40;;
40433;SDS011;26146;51.114;5.654;2023-04-09T10:36:21;27.60;;;16.73;;
40433;SDS011;26146;51.114;5.654;2023-04-09T10:40:27;28.88;;;16.60;;
40433;SDS011;26146;51.114;5.654;2023-04-09T10:44:31;28.50;;;16.27;;
40433;SDS011;26146;51.114;5.654;2023-04-09T10:48:32;26.10;;;14.57;;
40433;SDS011;26146;51.114;5.654;2023-04-09T10:52:35;20.88;;;12.57;;
40433;SDS011;26146;51.114;5.654;2023-04-09T10:56:44;20.00;;;11.63;;
40433;SDS011;26146;51.114;5.654;2023-04-09T11:01:10;22.92;;;11.13;;
40433;SDS011;26146;51.114;5.654;2023-04-09T11:09:34;18.38;;;10.88;;
40433;SDS011;26146;51.114;5.654;2023-04-09T11:13:39;18.25;;;10.52;;
40433;SDS011;26146;51.114;5.654;2023-04-09T11:17:41;18.10;;;10.95;;
40433;SDS011;26146;51.114;5.654;2023-04-09T11:21:42;17.65;;;10.02;;
40433;SDS011;26146;51.114;5.654;2023-04-09T11:25:49;22.27;;;12.23;;
40433;SDS011;26146;51.114;5.654;2023-04-09T11:29:59;20.27;;;11.82;;
40433;SDS011;26146;51.114;5.654;2023-04-09T11:34:03;19.60;;;11.77;;
40433;SDS011;26146;51.114;5.654;2023-04-09T11:38:07;20.15;;;11.25;;
40433;SDS011;26146;51.114;5.654;2023-04-09T11:42:13;18.25;;;10.88;;
40433;SDS011;26146;51.114;5.654;2023-04-09T11:46:14;18.73;;;11.23;;
40433;SDS011;26146;51.114;5.654;2023-04-09T11:50:15;18.02;;;10.75;;
40433;SDS011;26146;51.114;5.654;2023-04-09T11:54:18;19.13;;;11.10;;
40433;SDS011;26146;51.114;5.654;2023-04-09T11:58:22;17.83;;;10.43;;
40433;SDS011;26146;51.114;5.654;2023-04-09T12:02:25;18.00;;;10.35;;
40433;SDS011;26146;51.114;5.654;2023-04-09T12:06:29;17.65;;;10.50;;
40433;SDS011;26146;51.114;5.654;2023-04-09T12:10:32;18.48;;;10.35;;
40433;SDS011;26146;51.114;5.654;2023-04-09T12:14:37;17.48;;;9.70;;
40433;SDS011;26146;51.114;5.654;2023-04-09T12:18:46;16.23;;;9.35;;
40433;SDS011;26146;51.114;5.654;2023-04-09T12:22:47;15.68;;;8.93;;
40433;SDS011;26146;51.114;5.654;2023-04-09T12:26:51;15.57;;;9.13;;
40433;SDS011;26146;51.114;5.654;2023-04-09T12:30:52;16.58;;;9.25;;
40433;SDS011;26146;51.114;5.654;2023-04-09T12:34:53;16.27;;;8.85;;
40433;SDS011;26146;51.114;5.654;2023-04-09T12:38:55;14.88;;;8.80;;
40433;SDS011;26146;51.114;5.654;2023-04-09T12:42:55;16.50;;;9.00;;
40433;SDS011;26146;51.114;5.654;2023-04-09T12:46:56;14.23;;;8.50;;
40433;SDS011;26146;51.114;5.654;2023-04-09T12:50:58;15.95;;;8.77;;
40433;SDS011;26146;51.114;5.654;2023-04-09T12:54:59;16.00;;;8.95;;
40433;SDS011;26146;51.114;5.654;2023-04-09T12:59:00;14.88;;;8.55;;
40433;SDS011;26146;51.114;5.654;2023-04-09T13:03:03;16.10;;;9.07;;
40433;SDS011;26146;51.114;5.654;2023-04-09T13:07:04;15.43;;;8.80;;
40433;SDS011;26146;51.114;5.654;2023-04-09T13:11:08;14.18;;;8.73;;
40433;SDS011;26146;51.114;5.654;2023-04-09T13:15:09;16.13;;;8.95;;
40433;SDS011;26146;51.114;5.654;2023-04-09T13:19:11;13.80;;;7.85;;
40433;SDS011;26146;51.114;5.654;2023-04-09T13:23:11;14.82;;;7.82;;
40433;SDS011;26146;51.114;5.654;2023-04-09T13:27:12;14.38;;;7.93;;
40433;SDS011;26146;51.114;5.654;2023-04-09T13:31:13;14.05;;;7.88;;
40433;SDS011;26146;51.114;5.654;2023-04-09T13:35:14;13.82;;;8.00;;
40433;SDS011;26146;51.114;5.654;2023-04-09T13:39:15;14.93;;;7.82;;
40433;SDS011;26146;51.114;5.654;2023-04-09T13:43:16;12.93;;;7.78;;
40433;SDS011;26146;51.114;5.654;2023-04-09T13:47:20;13.77;;;8.23;;
40433;SDS011;26146;51.114;5.654;2023-04-09T13:51:22;12.95;;;7.68;;
40433;SDS011;26146;51.114;5.654;2023-04-09T13:55:25;13.60;;;8.13;;
40433;SDS011;26146;51.114;5.654;2023-04-09T13:59:28;14.23;;;7.93;;
40433;SDS011;26146;51.114;5.654;2023-04-09T14:03:29;12.00;;;6.47;;
40433;SDS011;26146;51.114;5.654;2023-04-09T14:07:30;12.60;;;7.00;;
40433;SDS011;26146;51.114;5.654;2023-04-09T14:11:31;12.73;;;7.00;;
40433;SDS011;26146;51.114;5.654;2023-04-09T14:15:32;13.63;;;7.13;;
40433;SDS011;26146;51.114;5.654;2023-04-09T14:19:34;14.23;;;7.90;;
40433;SDS011;26146;51.114;5.654;2023-04-09T14:23:35;14.23;;;8.13;;
40433;SDS011;26146;51.114;5.654;2023-04-09T14:27:36;13.40;;;8.07;;
40433;SDS011;26146;51.114;5.654;2023-04-09T14:31:39;15.13;;;7.97;;
40433;SDS011;26146;51.114;5.654;2023-04-09T14:35:41;14.52;;;7.68;;
40433;SDS011;26146;51.114;5.654;2023-04-09T14:39:42;13.48;;;7.40;;
40433;SDS011;26146;51.114;5.654;2023-04-09T14:43:43;13.30;;;7.60;;
40433;SDS011;26146;51.114;5.654;2023-04-09T14:47:44;12.95;;;7.07;;
40433;SDS011;26146;51.114;5.654;2023-04-09T14:51:45;14.32;;;7.68;;
40433;SDS011;26146;51.114;5.654;2023-04-09T14:55:46;13.80;;;6.45;;
40433;SDS011;26146;51.114;5.654;2023-04-09T14:59:47;12.63;;;6.53;;
40433;SDS011;26146;51.114;5.654;2023-04-09T15:03:48;11.85;;;6.40;;
40433;SDS011;26146;51.114;5.654;2023-04-09T15:07:49;13.05;;;6.80;;
40433;SDS011;26146;51.114;5.654;2023-04-09T15:11:50;12.07;;;6.50;;
40433;SDS011;26146;51.114;5.654;2023-04-09T15:15:53;14.80;;;7.43;;
40433;SDS011;26146;51.114;5.654;2023-04-09T15:19:54;13.10;;;6.47;;
40433;SDS011;26146;51.114;5.654;2023-04-09T15:23:55;11.35;;;6.05;;
40433;SDS011;26146;51.114;5.654;2023-04-09T15:27:58;12.05;;;6.25;;
40433;SDS011;26146;51.114;5.654;2023-04-09T15:31:58;11.13;;;5.97;;
40433;SDS011;26146;51.114;5.654;2023-04-09T15:35:59;10.90;;;5.57;;
40433;SDS011;26146;51.114;5.654;2023-04-09T15:40:03;11.15;;;5.90;;
40433;SDS011;26146;51.114;5.654;2023-04-09T15:44:04;11.70;;;5.80;;
40433;SDS011;26146;51.114;5.654;2023-04-09T15:48:07;11.57;;;5.85;;
40433;SDS011;26146;51.114;5.654;2023-04-09T15:52:08;11.90;;;5.70;;
40433;SDS011;26146;51.114;5.654;2023-04-09T15:56:10;11.43;;;5.72;;
40433;SDS011;26146;51.114;5.654;2023-04-09T16:00:14;11.55;;;5.75;;
40433;SDS011;26146;51.114;5.654;2023-04-09T16:04:15;11.20;;;5.90;;
40433;SDS011;26146;51.114;5.654;2023-04-09T16:08:16;10.55;;;5.20;;
40433;SDS011;26146;51.114;5.654;2023-04-09T16:12:17;11.55;;;5.70;;
40433;SDS011;26146;51.114;5.654;2023-04-09T16:16:18;10.98;;;5.53;;
40433;SDS011;26146;51.114;5.654;2023-04-09T16:20:19;10.52;;;5.40;;
40433;SDS011;26146;51.114;5.654;2023-04-09T16:24:20;10.20;;;4.60;;
40433;SDS011;26146;51.114;5.654;2023-04-09T16:28:24;10.55;;;4.80;;
40433;SDS011;26146;51.114;5.654;2023-04-09T16:32:25;11.23;;;5.10;;
40433;SDS011;26146;51.114;5.654;2023-04-09T16:36:29;10.40;;;5.10;;
40433;SDS011;26146;51.114;5.654;2023-04-09T16:40:36;10.18;;;4.95;;
40433;SDS011;26146;51.114;5.654;2023-04-09T16:44:37;10.98;;;5.07;;
40433;SDS011;26146;51.114;5.654;2023-04-09T16:48:38;12.13;;;6.25;;
40433;SDS011;26146;51.114;5.654;2023-04-09T16:52:40;11.98;;;5.63;;
40433;SDS011;26146;51.114;5.654;2023-04-09T16:56:44;9.82;;;4.70;;
40433;SDS011;26146;51.114;5.654;2023-04-09T17:04:48;10.18;;;4.93;;
40433;SDS011;26146;51.114;5.654;2023-04-09T17:08:53;11.10;;;5.25;;
40433;SDS011;26146;51.114;5.654;2023-04-09T17:12:53;11.70;;;5.60;;
40433;SDS011;26146;51.114;5.654;2023-04-09T17:16:54;10.80;;;5.35;;
40433;SDS011;26146;51.114;5.654;2023-04-09T17:20:55;10.55;;;5.38;;
40433;SDS011;26146;51.114;5.654;2023-04-09T17:24:56;11.60;;;5.80;;
40433;SDS011;26146;51.114;5.654;2023-04-09T17:28:57;12.00;;;5.40;;
40433;SDS011;26146;51.114;5.654;2023-04-09T17:32:58;11.38;;;5.88;;
40433;SDS011;26146;51.114;5.654;2023-04-09T17:36:59;10.75;;;5.13;;
40433;SDS011;26146;51.114;5.654;2023-04-09T17:41:00;10.73;;;5.22;;
40433;SDS011;26146;51.114;5.654;2023-04-09T17:45:01;10.88;;;5.13;;
40433;SDS011;26146;51.114;5.654;2023-04-09T17:49:03;10.65;;;5.22;;
40433;SDS011;26146;51.114;5.654;2023-04-09T17:53:05;10.90;;;5.43;;
40433;SDS011;26146;51.114;5.654;2023-04-09T17:57:06;10.57;;;5.53;;
40433;SDS011;26146;51.114;5.654;2023-04-09T18:01:07;13.52;;;6.78;;
40433;SDS011;26146;51.114;5.654;2023-04-09T18:05:08;15.43;;;8.50;;
40433;SDS011;26146;51.114;5.654;2023-04-09T18:09:09;16.90;;;9.63;;
40433;SDS011;26146;51.114;5.654;2023-04-09T18:13:12;16.15;;;8.35;;
40433;SDS011;26146;51.114;5.654;2023-04-09T18:17:12;13.07;;;6.43;;
40433;SDS011;26146;51.114;5.654;2023-04-09T18:21:13;11.00;;;5.80;;
40433;SDS011;26146;51.114;5.654;2023-04-09T18:25:14;11.73;;;5.97;;
40433;SDS011;26146;51.114;5.654;2023-04-09T18:29:15;13.65;;;6.60;;
40433;SDS011;26146;51.114;5.654;2023-04-09T18:33:16;14.07;;;7.00;;
40433;SDS011;26146;51.114;5.654;2023-04-09T18:37:18;14.05;;;6.82;;
40433;SDS011;26146;51.114;5.654;2023-04-09T18:41:21;13.93;;;6.70;;
40433;SDS011;26146;51.114;5.654;2023-04-09T18:45:22;15.00;;;7.88;;
40433;SDS011;26146;51.114;5.654;2023-04-09T18:49:23;13.38;;;6.68;;
40433;SDS011;26146;51.114;5.654;2023-04-09T18:53:26;15.25;;;7.13;;
40433;SDS011;26146;51.114;5.654;2023-04-09T18:57:27;16.17;;;7.07;;
40433;SDS011;26146;51.114;5.654;2023-04-09T19:01:32;11.63;;;5.70;;
40433;SDS011;26146;51.114;5.654;2023-04-09T19:05:33;12.18;;;5.50;;
40433;SDS011;26146;51.114;5.654;2023-04-09T19:09:35;12.77;;;5.57;;
40433;SDS011;26146;51.114;5.654;2023-04-09T19:13:36;13.02;;;6.22;;
40433;SDS011;26146;51.114;5.654;2023-04-09T19:17:38;18.60;;;7.70;;
40433;SDS011;26146;51.114;5.654;2023-04-09T19:21:39;14.80;;;6.35;;
40433;SDS011;26146;51.114;5.654;2023-04-09T19:25:40;10.98;;;5.50;;
40433;SDS011;26146;51.114;5.654;2023-04-09T19:29:42;10.60;;;5.27;;
40433;SDS011;26146;51.114;5.654;2023-04-09T19:33:44;11.45;;;5.32;;
40433;SDS011;26146;51.114;5.654;2023-04-09T19:37:47;11.88;;;5.60;;
40433;SDS011;26146;51.114;5.654;2023-04-09T19:41:48;11.33;;;5.40;;
40433;SDS011;26146;51.114;5.654;2023-04-09T19:45:50;10.65;;;5.35;;
40433;SDS011;26146;51.114;5.654;2023-04-09T19:49:50;12.00;;;5.50;;
40433;SDS011;26146;51.114;5.654;2023-04-09T19:53:54;11.03;;;5.10;;
40433;SDS011;26146;51.114;5.654;2023-04-09T19:57:56;11.80;;;5.60;;
40433;SDS011;26146;51.114;5.654;2023-04-09T20:01:57;11.57;;;5.90;;
40433;SDS011;26146;51.114;5.654;2023-04-09T20:05:59;11.57;;;5.53;;
40433;SDS011;26146;51.114;5.654;2023-04-09T20:10:00;11.37;;;5.57;;
40433;SDS011;26146;51.114;5.654;2023-04-09T20:14:01;12.37;;;5.70;;
40433;SDS011;26146;51.114;5.654;2023-04-09T20:18:03;13.43;;;5.73;;
40433;SDS011;26146;51.114;5.654;2023-04-09T20:22:04;12.57;;;5.80;;
40433;SDS011;26146;51.114;5.654;2023-04-09T20:26:05;17.33;;;8.90;;
40433;SDS011;26146;51.114;5.654;2023-04-09T20:34:11;18.27;;;10.37;;
40433;SDS011;26146;51.114;5.654;2023-04-09T20:38:12;20.33;;;11.93;;
40433;SDS011;26146;51.114;5.654;2023-04-09T20:42:13;38.47;;;25.13;;
40433;SDS011;26146;51.114;5.654;2023-04-09T20:46:14;33.97;;;21.07;;
40433;SDS011;26146;51.114;5.654;2023-04-09T20:50:15;29.23;;;12.93;;
40433;SDS011;26146;51.114;5.654;2023-04-09T20:54:16;16.10;;;8.40;;
40433;SDS011;26146;51.114;5.654;2023-04-09T20:58:19;13.17;;;6.57;;
40433;SDS011;26146;51.114;5.654;2023-04-09T21:02:20;13.67;;;6.43;;
40433;SDS011;26146;51.114;5.654;2023-04-09T21:06:21;12.53;;;6.23;;
40433;SDS011;26146;51.114;5.654;2023-04-09T21:10:22;14.40;;;6.60;;
40433;SDS011;26146;51.114;5.654;2023-04-09T21:14:23;14.03;;;6.97;;
40433;SDS011;26146;51.114;5.654;2023-04-09T21:18:24;13.60;;;6.40;;
40433;SDS011;26146;51.114;5.654;2023-04-09T21:22:25;13.17;;;6.53;;
40433;SDS011;26146;51.114;5.654;2023-04-09T21:26:26;14.10;;;6.50;;
40433;SDS011;26146;51.114;5.654;2023-04-09T21:30:27;13.43;;;6.23;;
40433;SDS011;26146;51.114;5.654;2023-04-09T21:34:28;14.23;;;6.57;;
40433;SDS011;26146;51.114;5.654;2023-04-09T21:38:30;13.90;;;6.07;;
40433;SDS011;26146;51.114;5.654;2023-04-09T21:42:31;13.07;;;6.23;;
40433;SDS011;26146;51.114;5.654;2023-04-09T21:46:33;14.03;;;5.90;;
40433;SDS011;26146;51.114;5.654;2023-04-09T21:50:36;13.33;;;6.30;;
40433;SDS011;26146;51.114;5.654;2023-04-09T21:54:40;14.33;;;6.40;;
40433;SDS011;26146;51.114;5.654;2023-04-09T21:58:41;12.40;;;6.17;;
40433;SDS011;26146;51.114;5.654;2023-04-09T22:02:45;13.97;;;6.30;;
40433;SDS011;26146;51.114;5.654;2023-04-09T22:06:46;14.20;;;6.20;;
40433;SDS011;26146;51.114;5.654;2023-04-09T22:10:47;12.50;;;5.90;;
40433;SDS011;26146;51.114;5.654;2023-04-09T22:14:48;11.33;;;5.97;;
40433;SDS011;26146;51.114;5.654;2023-04-09T22:18:49;12.87;;;5.93;;
40433;SDS011;26146;51.114;5.654;2023-04-09T22:22:53;12.17;;;5.43;;
40433;SDS011;26146;51.114;5.654;2023-04-09T22:26:57;12.77;;;5.67;;
40433;SDS011;26146;51.114;5.654;2023-04-09T22:31:00;11.93;;;5.63;;
40433;SDS011;26146;51.114;5.654;2023-04-09T22:35:01;11.90;;;5.47;;
40433;SDS011;26146;51.114;5.654;2023-04-09T22:39:02;11.30;;;5.60;;
40433;SDS011;26146;51.114;5.654;2023-04-09T22:43:06;11.53;;;5.70;;
40433;SDS011;26146;51.114;5.654;2023-04-09T22:47:07;10.70;;;5.10;;
40433;SDS011;26146;51.114;5.654;2023-04-09T22:51:08;11.93;;;5.63;;
40433;SDS011;26146;51.114;5.654;2023-04-09T22:55:09;11.47;;;5.30;;
40433;SDS011;26146;51.114;5.654;2023-04-09T22:59:12;10.80;;;4.93;;
40433;SDS011;26146;51.114;5.654;2023-04-09T23:03:14;11.63;;;5.33;;
40433;SDS011;26146;51.114;5.654;2023-04-09T23:07:16;11.97;;;5.23;;
40433;SDS011;26146;51.114;5.654;2023-04-09T23:11:17;10.37;;;5.10;;
40433;SDS011;26146;51.114;5.654;2023-04-09T23:15:18;10.67;;;4.50;;
40433;SDS011;26146;51.114;5.654;2023-04-09T23:19:21;10.90;;;4.80;;
40433;SDS011;26146;51.114;5.654;2023-04-09T23:23:23;10.50;;;5.00;;
40433;SDS011;26146;51.114;5.654;2023-04-09T23:27:23;10.37;;;4.90;;
40433;SDS011;26146;51.114;5.654;2023-04-09T23:31:27;11.00;;;4.83;;
40433;SDS011;26146;51.114;5.654;2023-04-09T23:35:28;11.57;;;4.63;;
40433;SDS011;26146;51.114;5.654;2023-04-09T23:39:29;9.70;;;4.40;;
40433;SDS011;26146;51.114;5.654;2023-04-09T23:43:30;11.07;;;4.67;;
40433;SDS011;26146;51.114;5.654;2023-04-09T23:47:32;9.67;;;4.20;;
40433;SDS011;26146;51.114;5.654;2023-04-09T23:51:34;9.63;;;4.23;;
40433;SDS011;26146;51.114;5.654;2023-04-09T23:55:35;9.50;;;4.37;;
40433;SDS011;26146;51.114;5.654;2023-04-09T23:59:40;9.73;;;4.63;;
